sensor_id;sensor_type;location;lat;lon;timestamp;pressure;altitude;pressure_sealevel;temperature;humidity
64368;BME280;50692;53.314;-6.300;2022-11-11T00:01:17;100683.13;;;16.12;84.12
64368;BME280;50692;53.314;-6.300;2022-11-11T00:04:03;100687.50;;;16.13;83.77
64368;BME280;50692;53.314;-6.300;2022-11-11T00:06:48;100699.63;;;16.17;83.15
64368;BME280;50692;53.314;-6.300;2022-11-11T00:09:34;100704.84;;;16.18;82.89
64368;BME280;50692;53.314;-6.300;2022-11-11T00:12:20;100676.59;;;16.16;82.82
64368;BME280;50692;53.314;-6.300;2022-11-11T00:15:06;100678.28;;;16.17;82.79
64368;BME280;50692;53.314;-6.300;2022-11-11T00:17:52;100693.56;;;16.15;82.74
64368;BME280;50692;53.314;-6.300;2022-11-11T00:20:57;100683.13;;;16.12;83.05
64368;BME280;50692;53.314;-6.300;2022-11-11T00:24:02;100687.59;;;16.11;83.08
64368;BME280;50692;53.314;-6.300;2022-11-11T00:27:08;100715.72;;;16.15;83.32
64368;BME280;50692;53.314;-6.300;2022-11-11T00:29:55;100710.53;;;16.14;83.56
64368;BME280;50692;53.314;-6.300;2022-11-11T00:32:40;100691.84;;;16.14;83.61
64368;BME280;50692;53.314;-6.300;2022-11-11T00:35:26;100698.16;;;16.13;83.26
64368;BME280;50692;53.314;-6.300;2022-11-11T00:38:31;100695.00;;;16.19;83.04
64368;BME280;50692;53.314;-6.300;2022-11-11T00:41:32;100689.06;;;16.15;83.02
64368;BME280;50692;53.314;-6.300;2022-11-11T00:44:18;100698.03;;;16.14;83.17
64368;BME280;50692;53.314;-6.300;2022-11-11T00:47:04;100699.09;;;16.12;83.44
64368;BME280;50692;53.314;-6.300;2022-11-11T00:50:27;100703.72;;;16.10;83.75
64368;BME280;50692;53.314;-6.300;2022-11-11T00:53:52;100694.97;;;16.07;84.06
64368;BME280;50692;53.314;-6.300;2022-11-11T00:56:38;100695.13;;;16.06;84.15
64368;BME280;50692;53.314;-6.300;2022-11-11T00:59:24;100685.44;;;16.05;84.06
64368;BME280;50692;53.314;-6.300;2022-11-11T01:02:09;100677.53;;;16.03;84.21
64368;BME280;50692;53.314;-6.300;2022-11-11T01:04:55;100679.81;;;15.97;84.23
64368;BME280;50692;53.314;-6.300;2022-11-11T01:07:41;100681.53;;;15.98;84.34
64368;BME280;50692;53.314;-6.300;2022-11-11T01:10:27;100675.22;;;15.99;84.03
64368;BME280;50692;53.314;-6.300;2022-11-11T01:13:30;100661.88;;;15.99;83.76
64368;BME280;50692;53.314;-6.300;2022-11-11T01:16:22;100650.84;;;15.92;83.81
64368;BME280;50692;53.314;-6.300;2022-11-11T01:19:08;100684.53;;;15.93;83.55
64368;BME280;50692;53.314;-6.300;2022-11-11T01:21:54;100659.81;;;15.91;83.64
64368;BME280;50692;53.314;-6.300;2022-11-11T01:24:39;100687.19;;;15.93;83.89
64368;BME280;50692;53.314;-6.300;2022-11-11T01:27:25;100690.16;;;16.01;83.53
64368;BME280;50692;53.314;-6.300;2022-11-11T01:30:11;100689.25;;;16.01;83.50
64368;BME280;50692;53.314;-6.300;2022-11-11T01:32:59;100685.28;;;16.06;83.48
64368;BME280;50692;53.314;-6.300;2022-11-11T01:35:44;100702.38;;;16.04;83.49
64368;BME280;50692;53.314;-6.300;2022-11-11T01:38:30;100710.50;;;16.02;83.31
64368;BME280;50692;53.314;-6.300;2022-11-11T01:41:18;100713.88;;;16.04;83.20
64368;BME280;50692;53.314;-6.300;2022-11-11T01:47:25;100695.34;;;16.03;82.68
64368;BME280;50692;53.314;-6.300;2022-11-11T01:50:31;100725.75;;;16.00;82.28
64368;BME280;50692;53.314;-6.300;2022-11-11T01:53:16;100691.47;;;16.07;81.71
64368;BME280;50692;53.314;-6.300;2022-11-11T01:56:03;100716.44;;;16.06;81.91
64368;BME280;50692;53.314;-6.300;2022-11-11T01:58:50;100708.94;;;16.11;81.71
64368;BME280;50692;53.314;-6.300;2022-11-11T02:01:37;100709.16;;;16.08;82.06
64368;BME280;50692;53.314;-6.300;2022-11-11T02:04:24;100715.25;;;16.10;82.06
64368;BME280;50692;53.314;-6.300;2022-11-11T02:07:28;100730.03;;;16.14;82.03
64368;BME280;50692;53.314;-6.300;2022-11-11T02:10:21;100699.59;;;16.05;82.24
64368;BME280;50692;53.314;-6.300;2022-11-11T02:13:12;100716.09;;;16.11;82.21
64368;BME280;50692;53.314;-6.300;2022-11-11T02:16:17;100726.16;;;16.18;82.02
64368;BME280;50692;53.314;-6.300;2022-11-11T02:19:03;100733.69;;;16.13;82.52
64368;BME280;50692;53.314;-6.300;2022-11-11T02:21:58;100722.78;;;16.16;82.48
64368;BME280;50692;53.314;-6.300;2022-11-11T02:24:45;100714.56;;;16.19;82.34
64368;BME280;50692;53.314;-6.300;2022-11-11T02:27:33;100712.13;;;16.16;82.70
64368;BME280;50692;53.314;-6.300;2022-11-11T02:30:21;100717.69;;;16.13;83.04
64368;BME280;50692;53.314;-6.300;2022-11-11T02:33:07;100718.53;;;16.14;83.07
64368;BME280;50692;53.314;-6.300;2022-11-11T02:35:55;100721.31;;;16.12;83.33
64368;BME280;50692;53.314;-6.300;2022-11-11T02:38:43;100699.47;;;16.07;83.41
64368;BME280;50692;53.314;-6.300;2022-11-11T02:41:29;100697.31;;;16.12;83.13
64368;BME280;50692;53.314;-6.300;2022-11-11T02:44:34;100702.03;;;16.09;83.24
64368;BME280;50692;53.314;-6.300;2022-11-11T02:47:20;100707.25;;;16.10;83.43
64368;BME280;50692;53.314;-6.300;2022-11-11T02:50:06;100709.41;;;16.05;83.54
64368;BME280;50692;53.314;-6.300;2022-11-11T02:52:52;100686.88;;;16.09;83.38
64368;BME280;50692;53.314;-6.300;2022-11-11T02:55:38;100691.00;;;16.02;83.88
64368;BME280;50692;53.314;-6.300;2022-11-11T02:58:23;100704.16;;;15.92;84.17
64368;BME280;50692;53.314;-6.300;2022-11-11T03:01:09;100691.81;;;15.91;84.08
64368;BME280;50692;53.314;-6.300;2022-11-11T03:03:55;100694.56;;;15.90;84.23
64368;BME280;50692;53.314;-6.300;2022-11-11T03:06:41;100683.66;;;15.93;84.12
64368;BME280;50692;53.314;-6.300;2022-11-11T03:09:27;100660.13;;;15.87;84.36
64368;BME280;50692;53.314;-6.300;2022-11-11T03:12:13;100669.00;;;15.87;84.28
64368;BME280;50692;53.314;-6.300;2022-11-11T03:14:59;100658.34;;;15.87;83.96
64368;BME280;50692;53.314;-6.300;2022-11-11T03:17:45;100695.66;;;15.87;84.20
64368;BME280;50692;53.314;-6.300;2022-11-11T03:20:31;100671.38;;;15.79;84.03
64368;BME280;50692;53.314;-6.300;2022-11-11T03:23:35;100685.84;;;15.88;84.05
64368;BME280;50692;53.314;-6.300;2022-11-11T03:26:21;100672.63;;;15.86;84.28
64368;BME280;50692;53.314;-6.300;2022-11-11T03:29:07;100676.63;;;15.80;83.94
64368;BME280;50692;53.314;-6.300;2022-11-11T03:31:53;100669.34;;;15.82;83.44
64368;BME280;50692;53.314;-6.300;2022-11-11T03:34:38;100663.06;;;15.83;83.46
64368;BME280;50692;53.314;-6.300;2022-11-11T03:37:24;100665.59;;;15.85;83.18
64368;BME280;50692;53.314;-6.300;2022-11-11T03:40:29;100658.81;;;15.81;82.42
64368;BME280;50692;53.314;-6.300;2022-11-11T03:43:17;100661.56;;;15.79;82.30
64368;BME280;50692;53.314;-6.300;2022-11-11T03:46:04;100629.50;;;15.81;82.06
64368;BME280;50692;53.314;-6.300;2022-11-11T03:48:50;100636.75;;;15.79;81.91
64368;BME280;50692;53.314;-6.300;2022-11-11T03:51:36;100636.66;;;15.80;81.99
64368;BME280;50692;53.314;-6.300;2022-11-11T03:54:21;100631.31;;;15.80;81.89
64368;BME280;50692;53.314;-6.300;2022-11-11T03:57:07;100630.56;;;15.78;82.09
64368;BME280;50692;53.314;-6.300;2022-11-11T04:00:14;100632.25;;;15.79;81.92
64368;BME280;50692;53.314;-6.300;2022-11-11T04:03:08;100638.34;;;15.81;81.91
64368;BME280;50692;53.314;-6.300;2022-11-11T04:06:14;100637.09;;;15.74;81.65
64368;BME280;50692;53.314;-6.300;2022-11-11T04:09:18;100638.94;;;15.85;81.07
64368;BME280;50692;53.314;-6.300;2022-11-11T04:12:23;100656.00;;;15.82;81.18
64368;BME280;50692;53.314;-6.300;2022-11-11T04:15:09;100633.22;;;15.78;81.35
64368;BME280;50692;53.314;-6.300;2022-11-11T04:18:13;100658.91;;;15.79;81.12
64368;BME280;50692;53.314;-6.300;2022-11-11T04:20:59;100659.88;;;15.78;80.65
64368;BME280;50692;53.314;-6.300;2022-11-11T04:24:04;100665.59;;;15.85;80.60
64368;BME280;50692;53.314;-6.300;2022-11-11T04:27:12;100700.03;;;15.88;80.54
64368;BME280;50692;53.314;-6.300;2022-11-11T04:29:58;100693.84;;;15.88;80.82
64368;BME280;50692;53.314;-6.300;2022-11-11T04:32:44;100685.09;;;15.86;80.04
64368;BME280;50692;53.314;-6.300;2022-11-11T04:35:32;100709.53;;;16.03;79.51
64368;BME280;50692;53.314;-6.300;2022-11-11T04:38:18;100703.97;;;16.06;79.29
64368;BME280;50692;53.314;-6.300;2022-11-11T04:41:22;100711.97;;;16.06;79.17
64368;BME280;50692;53.314;-6.300;2022-11-11T04:44:07;100720.31;;;16.02;79.47
64368;BME280;50692;53.314;-6.300;2022-11-11T04:47:12;100705.16;;;16.02;79.29
64368;BME280;50692;53.314;-6.300;2022-11-11T04:49:58;100711.34;;;16.03;79.16
64368;BME280;50692;53.314;-6.300;2022-11-11T04:52:44;100721.63;;;15.96;79.42
64368;BME280;50692;53.314;-6.300;2022-11-11T04:55:29;100700.41;;;15.95;79.37
64368;BME280;50692;53.314;-6.300;2022-11-11T04:58:34;100708.50;;;15.93;78.53
64368;BME280;50692;53.314;-6.300;2022-11-11T05:01:20;100696.53;;;15.99;78.27
64368;BME280;50692;53.314;-6.300;2022-11-11T05:04:26;100701.03;;;15.98;78.42
64368;BME280;50692;53.314;-6.300;2022-11-11T05:07:11;100704.41;;;16.00;78.36
64368;BME280;50692;53.314;-6.300;2022-11-11T05:10:16;100712.31;;;16.02;78.11
64368;BME280;50692;53.314;-6.300;2022-11-11T05:13:02;100708.53;;;16.04;77.75
64368;BME280;50692;53.314;-6.300;2022-11-11T05:16:09;100721.41;;;16.11;76.95
64368;BME280;50692;53.314;-6.300;2022-11-11T05:19:16;100707.50;;;16.18;76.44
64368;BME280;50692;53.314;-6.300;2022-11-11T05:25:10;100708.84;;;16.24;76.07
64368;BME280;50692;53.314;-6.300;2022-11-11T05:28:13;100710.31;;;16.28;76.15
64368;BME280;50692;53.314;-6.300;2022-11-11T05:30:59;100717.25;;;16.30;76.34
64368;BME280;50692;53.314;-6.300;2022-11-11T05:33:45;100720.97;;;16.28;76.79
64368;BME280;50692;53.314;-6.300;2022-11-11T05:36:31;100709.47;;;16.27;76.16
64368;BME280;50692;53.314;-6.300;2022-11-11T05:39:17;100688.59;;;16.21;76.13
64368;BME280;50692;53.314;-6.300;2022-11-11T05:42:03;100709.00;;;16.34;75.92
64368;BME280;50692;53.314;-6.300;2022-11-11T05:44:49;100715.41;;;16.31;75.90
64368;BME280;50692;53.314;-6.300;2022-11-11T05:47:35;100734.56;;;16.36;76.38
64368;BME280;50692;53.314;-6.300;2022-11-11T05:50:21;100727.69;;;16.34;76.66
64368;BME280;50692;53.314;-6.300;2022-11-11T05:53:07;100781.38;;;16.40;76.20
64368;BME280;50692;53.314;-6.300;2022-11-11T05:55:53;100775.94;;;16.42;75.64
64368;BME280;50692;53.314;-6.300;2022-11-11T05:58:39;100774.75;;;16.46;75.23
64368;BME280;50692;53.314;-6.300;2022-11-11T06:01:24;100773.31;;;16.53;74.76
64368;BME280;50692;53.314;-6.300;2022-11-11T06:04:10;100798.16;;;16.53;75.04
64368;BME280;50692;53.314;-6.300;2022-11-11T06:06:56;100794.41;;;16.56;74.71
64368;BME280;50692;53.314;-6.300;2022-11-11T06:09:42;100802.66;;;16.53;74.58
64368;BME280;50692;53.314;-6.300;2022-11-11T06:12:28;100794.19;;;16.59;74.08
64368;BME280;50692;53.314;-6.300;2022-11-11T06:15:35;100803.13;;;16.58;73.96
64368;BME280;50692;53.314;-6.300;2022-11-11T06:18:21;100818.69;;;16.64;74.08
64368;BME280;50692;53.314;-6.300;2022-11-11T06:21:06;100794.91;;;16.61;73.78
64368;BME280;50692;53.314;-6.300;2022-11-11T06:23:52;100812.16;;;16.68;73.76
64368;BME280;50692;53.314;-6.300;2022-11-11T06:26:38;100842.47;;;16.67;73.85
64368;BME280;50692;53.314;-6.300;2022-11-11T06:29:24;100800.00;;;16.64;73.34
64368;BME280;50692;53.314;-6.300;2022-11-11T06:32:09;100819.22;;;16.69;73.41
64368;BME280;50692;53.314;-6.300;2022-11-11T06:34:55;100783.50;;;16.59;73.41
64368;BME280;50692;53.314;-6.300;2022-11-11T06:37:41;100791.03;;;16.65;73.33
64368;BME280;50692;53.314;-6.300;2022-11-11T06:40:27;100801.59;;;16.67;72.71
64368;BME280;50692;53.314;-6.300;2022-11-11T06:43:12;100798.53;;;16.60;72.94
64368;BME280;50692;53.314;-6.300;2022-11-11T06:45:58;100813.13;;;16.67;71.90
64368;BME280;50692;53.314;-6.300;2022-11-11T06:48:44;100799.53;;;16.70;71.80
64368;BME280;50692;53.314;-6.300;2022-11-11T06:51:30;100802.94;;;16.72;72.00
64368;BME280;50692;53.314;-6.300;2022-11-11T06:54:16;100791.78;;;16.67;71.58
64368;BME280;50692;53.314;-6.300;2022-11-11T06:57:02;100783.41;;;16.72;71.35
64368;BME280;50692;53.314;-6.300;2022-11-11T06:59:48;100772.72;;;16.72;71.59
64368;BME280;50692;53.314;-6.300;2022-11-11T07:02:33;100800.38;;;16.71;72.11
64368;BME280;50692;53.314;-6.300;2022-11-11T07:05:19;100782.34;;;16.74;71.75
64368;BME280;50692;53.314;-6.300;2022-11-11T07:08:11;100772.09;;;16.68;72.07
64368;BME280;50692;53.314;-6.300;2022-11-11T07:10:58;100789.84;;;16.69;72.12
64368;BME280;50692;53.314;-6.300;2022-11-11T07:13:43;100777.22;;;16.71;72.02
64368;BME280;50692;53.314;-6.300;2022-11-11T07:16:29;100765.22;;;16.66;72.21
64368;BME280;50692;53.314;-6.300;2022-11-11T07:19:15;100755.47;;;16.65;72.30
64368;BME280;50692;53.314;-6.300;2022-11-11T07:22:01;100785.94;;;16.62;72.31
64368;BME280;50692;53.314;-6.300;2022-11-11T07:24:47;100745.03;;;16.62;72.24
64368;BME280;50692;53.314;-6.300;2022-11-11T07:27:39;100755.38;;;16.66;72.02
64368;BME280;50692;53.314;-6.300;2022-11-11T07:30:25;100759.97;;;16.64;72.03
64368;BME280;50692;53.314;-6.300;2022-11-11T07:33:11;100768.34;;;16.60;72.55
64368;BME280;50692;53.314;-6.300;2022-11-11T07:35:57;100766.75;;;16.57;72.57
64368;BME280;50692;53.314;-6.300;2022-11-11T07:38:42;100746.38;;;16.56;72.62
64368;BME280;50692;53.314;-6.300;2022-11-11T07:41:28;100739.47;;;16.53;72.71
64368;BME280;50692;53.314;-6.300;2022-11-11T07:44:14;100773.66;;;16.48;72.97
64368;BME280;50692;53.314;-6.300;2022-11-11T07:47:00;100760.19;;;16.50;72.74
64368;BME280;50692;53.314;-6.300;2022-11-11T07:49:46;100749.66;;;16.48;73.60
64368;BME280;50692;53.314;-6.300;2022-11-11T07:52:32;100743.34;;;16.49;74.37
64368;BME280;50692;53.314;-6.300;2022-11-11T07:55:18;100762.88;;;16.50;75.23
64368;BME280;50692;53.314;-6.300;2022-11-11T07:58:03;100758.38;;;16.50;75.81
64368;BME280;50692;53.314;-6.300;2022-11-11T08:00:51;100758.50;;;16.49;76.38
64368;BME280;50692;53.314;-6.300;2022-11-11T08:03:36;100762.88;;;16.50;76.81
64368;BME280;50692;53.314;-6.300;2022-11-11T08:06:34;100761.63;;;16.43;77.74
64368;BME280;50692;53.314;-6.300;2022-11-11T08:09:19;100770.25;;;16.46;78.12
64368;BME280;50692;53.314;-6.300;2022-11-11T08:12:05;100783.34;;;16.38;78.84
64368;BME280;50692;53.314;-6.300;2022-11-11T08:15:09;100778.22;;;16.35;79.28
64368;BME280;50692;53.314;-6.300;2022-11-11T08:17:55;100782.81;;;16.33;79.49
64368;BME280;50692;53.314;-6.300;2022-11-11T08:20:41;100793.25;;;16.36;79.20
64368;BME280;50692;53.314;-6.300;2022-11-11T08:23:27;100782.72;;;16.35;78.86
64368;BME280;50692;53.314;-6.300;2022-11-11T08:26:20;100809.25;;;16.36;78.65
64368;BME280;50692;53.314;-6.300;2022-11-11T08:29:06;100774.72;;;16.35;77.96
64368;BME280;50692;53.314;-6.300;2022-11-11T08:31:52;100794.16;;;16.48;77.47
64368;BME280;50692;53.314;-6.300;2022-11-11T08:34:38;100783.97;;;16.53;77.19
64368;BME280;50692;53.314;-6.300;2022-11-11T08:37:24;100782.78;;;16.57;77.00
64368;BME280;50692;53.314;-6.300;2022-11-11T08:40:10;100783.28;;;16.62;76.73
64368;BME280;50692;53.314;-6.300;2022-11-11T08:42:56;100790.41;;;16.62;76.59
64368;BME280;50692;53.314;-6.300;2022-11-11T08:45:42;100803.75;;;16.62;76.48
64368;BME280;50692;53.314;-6.300;2022-11-11T08:48:30;100813.13;;;16.67;76.28
64368;BME280;50692;53.314;-6.300;2022-11-11T08:51:16;100805.47;;;16.63;76.12
64368;BME280;50692;53.314;-6.300;2022-11-11T08:54:02;100823.56;;;16.70;75.29
64368;BME280;50692;53.314;-6.300;2022-11-11T08:56:48;100877.38;;;16.77;74.65
64368;BME280;50692;53.314;-6.300;2022-11-11T08:59:34;100830.53;;;16.84;74.40
64368;BME280;50692;53.314;-6.300;2022-11-11T09:02:19;100858.69;;;16.88;74.18
64368;BME280;50692;53.314;-6.300;2022-11-11T09:05:05;100847.91;;;17.01;73.56
64368;BME280;50692;53.314;-6.300;2022-11-11T09:07:51;100850.63;;;17.23;72.91
64368;BME280;50692;53.314;-6.300;2022-11-11T09:10:37;100843.91;;;17.40;72.56
64368;BME280;50692;53.314;-6.300;2022-11-11T09:13:23;100849.38;;;17.61;71.75
64368;BME280;50692;53.314;-6.300;2022-11-11T09:16:09;100838.81;;;17.60;72.23
64368;BME280;50692;53.314;-6.300;2022-11-11T09:18:55;100833.13;;;17.42;73.14
64368;BME280;50692;53.314;-6.300;2022-11-11T09:21:41;100828.88;;;17.39;73.31
64368;BME280;50692;53.314;-6.300;2022-11-11T09:24:26;100862.13;;;17.46;73.14
64368;BME280;50692;53.314;-6.300;2022-11-11T09:27:12;100827.78;;;17.42;72.89
64368;BME280;50692;53.314;-6.300;2022-11-11T09:29:58;100820.84;;;17.39;73.16
64368;BME280;50692;53.314;-6.300;2022-11-11T09:32:44;100885.09;;;17.49;73.15
64368;BME280;50692;53.314;-6.300;2022-11-11T09:35:29;100861.53;;;17.54;72.80
64368;BME280;50692;53.314;-6.300;2022-11-11T09:38:16;100841.22;;;17.85;71.81
64368;BME280;50692;53.314;-6.300;2022-11-11T09:43:56;100879.41;;;18.31;69.46
64368;BME280;50692;53.314;-6.300;2022-11-11T09:47:11;100869.44;;;18.54;67.66
64368;BME280;50692;53.314;-6.300;2022-11-11T09:50:00;100880.41;;;18.83;66.60
64368;BME280;50692;53.314;-6.300;2022-11-11T10:01:57;100941.56;;;18.34;67.79
64368;BME280;50692;53.314;-6.300;2022-11-11T10:05:01;100909.16;;;18.05;69.17
64368;BME280;50692;53.314;-6.300;2022-11-11T10:08:02;100907.84;;;17.88;70.36
64368;BME280;50692;53.314;-6.300;2022-11-11T10:10:51;100928.75;;;17.94;70.52
64368;BME280;50692;53.314;-6.300;2022-11-11T10:13:37;100939.00;;;18.21;69.78
64368;BME280;50692;53.314;-6.300;2022-11-11T10:19:58;100931.16;;;19.05;66.68
64368;BME280;50692;53.314;-6.300;2022-11-11T10:22:54;100919.56;;;19.47;65.53
64368;BME280;50692;53.314;-6.300;2022-11-11T10:25:54;100930.75;;;19.82;63.72
64368;BME280;50692;53.314;-6.300;2022-11-11T10:28:42;100940.94;;;19.88;63.35
64368;BME280;50692;53.314;-6.300;2022-11-11T10:31:30;100920.31;;;19.89;62.97
64368;BME280;50692;53.314;-6.300;2022-11-11T10:34:16;100900.63;;;19.69;63.75
64368;BME280;50692;53.314;-6.300;2022-11-11T10:37:16;100860.66;;;19.66;63.69
64368;BME280;50692;53.314;-6.300;2022-11-11T10:40:22;100925.81;;;19.57;64.00
64368;BME280;50692;53.314;-6.300;2022-11-11T10:43:22;100925.31;;;19.63;63.54
64368;BME280;50692;53.314;-6.300;2022-11-11T10:49:18;100901.41;;;19.91;63.21
64368;BME280;50692;53.314;-6.300;2022-11-11T10:52:21;100914.31;;;20.16;61.52
64368;BME280;50692;53.314;-6.300;2022-11-11T10:55:15;100909.63;;;19.99;62.37
64368;BME280;50692;53.314;-6.300;2022-11-11T11:00:55;100921.03;;;20.60;60.08
64368;BME280;50692;53.314;-6.300;2022-11-11T11:03:45;100956.94;;;20.79;59.75
64368;BME280;50692;53.314;-6.300;2022-11-11T11:06:35;100935.16;;;20.63;60.11
64368;BME280;50692;53.314;-6.300;2022-11-11T11:09:44;100945.75;;;20.54;60.16
64368;BME280;50692;53.314;-6.300;2022-11-11T11:12:38;100903.88;;;20.32;60.78
64368;BME280;50692;53.314;-6.300;2022-11-11T11:15:27;100927.44;;;20.19;61.48
64368;BME280;50692;53.314;-6.300;2022-11-11T11:18:17;100886.66;;;20.35;61.08
64368;BME280;50692;53.314;-6.300;2022-11-11T11:21:05;100896.13;;;20.29;61.59
64368;BME280;50692;53.314;-6.300;2022-11-11T11:23:51;100903.31;;;20.48;60.94
64368;BME280;50692;53.314;-6.300;2022-11-11T11:26:45;100911.72;;;20.74;60.15
64368;BME280;50692;53.314;-6.300;2022-11-11T11:29:40;100913.38;;;21.04;59.20
64368;BME280;50692;53.314;-6.300;2022-11-11T11:32:28;100941.53;;;20.91;59.51
64368;BME280;50692;53.314;-6.300;2022-11-11T11:35:44;100932.28;;;21.13;58.93
64368;BME280;50692;53.314;-6.300;2022-11-11T11:38:41;100928.41;;;21.54;57.97
64368;BME280;50692;53.314;-6.300;2022-11-11T11:41:44;100936.38;;;21.46;57.71
64368;BME280;50692;53.314;-6.300;2022-11-11T11:44:38;100899.22;;;21.02;58.73
64368;BME280;50692;53.314;-6.300;2022-11-11T11:53:47;100896.31;;;20.67;60.57
64368;BME280;50692;53.314;-6.300;2022-11-11T11:56:47;100917.91;;;21.04;60.21
64368;BME280;50692;53.314;-6.300;2022-11-11T12:05:49;100924.84;;;20.58;61.11
64368;BME280;50692;53.314;-6.300;2022-11-11T12:11:42;100953.69;;;20.95;60.26
64368;BME280;50692;53.314;-6.300;2022-11-11T12:14:44;100943.94;;;20.74;60.79
64368;BME280;50692;53.314;-6.300;2022-11-11T12:20:50;100969.19;;;20.43;62.41
64368;BME280;50692;53.314;-6.300;2022-11-11T12:27:12;100929.69;;;20.74;61.38
64368;BME280;50692;53.314;-6.300;2022-11-11T12:30:11;100955.53;;;20.65;61.45
64368;BME280;50692;53.314;-6.300;2022-11-11T12:36:07;100977.31;;;20.72;61.68
64368;BME280;50692;53.314;-6.300;2022-11-11T12:54:46;100992.44;;;21.21;60.00
64368;BME280;50692;53.314;-6.300;2022-11-11T13:00:22;100970.34;;;21.18;60.11
64368;BME280;50692;53.314;-6.300;2022-11-11T13:03:26;100987.88;;;21.31;59.58
64368;BME280;50692;53.314;-6.300;2022-11-11T13:12:42;101003.53;;;21.75;57.82
64368;BME280;50692;53.314;-6.300;2022-11-11T13:15:29;101024.19;;;21.74;57.92
64368;BME280;50692;53.314;-6.300;2022-11-11T13:18:34;101022.66;;;21.62;58.25
64368;BME280;50692;53.314;-6.300;2022-11-11T13:21:29;101059.34;;;21.15;59.66
64368;BME280;50692;53.314;-6.300;2022-11-11T13:24:20;101026.47;;;20.53;62.04
64368;BME280;50692;53.314;-6.300;2022-11-11T13:31:29;101019.34;;;20.02;64.28
64368;BME280;50692;53.314;-6.300;2022-11-11T13:34:16;101062.72;;;20.07;64.45
64368;BME280;50692;53.314;-6.300;2022-11-11T13:37:04;101041.75;;;19.91;64.74
64368;BME280;50692;53.314;-6.300;2022-11-11T13:39:52;101002.41;;;19.71;66.06
64368;BME280;50692;53.314;-6.300;2022-11-11T13:42:41;101058.81;;;19.48;66.93
64368;BME280;50692;53.314;-6.300;2022-11-11T13:45:40;101057.31;;;19.55;67.00
64368;BME280;50692;53.314;-6.300;2022-11-11T13:48:44;101046.00;;;19.63;66.56
64368;BME280;50692;53.314;-6.300;2022-11-11T13:51:42;101028.88;;;19.43;67.06
64368;BME280;50692;53.314;-6.300;2022-11-11T13:54:36;101055.03;;;19.30;68.32
64368;BME280;50692;53.314;-6.300;2022-11-11T13:57:25;101040.44;;;19.23;68.65
64368;BME280;50692;53.314;-6.300;2022-11-11T14:08:59;101071.38;;;18.83;71.29
64368;BME280;50692;53.314;-6.300;2022-11-11T14:11:46;101069.44;;;18.85;71.24
64368;BME280;50692;53.314;-6.300;2022-11-11T14:14:43;101076.41;;;18.77;71.74
64368;BME280;50692;53.314;-6.300;2022-11-11T14:17:30;101086.38;;;18.63;72.43
64368;BME280;50692;53.314;-6.300;2022-11-11T14:20:35;101091.75;;;18.63;72.74
64368;BME280;50692;53.314;-6.300;2022-11-11T14:23:35;101087.84;;;18.56;73.14
64368;BME280;50692;53.314;-6.300;2022-11-11T14:26:24;101082.84;;;18.52;73.51
64368;BME280;50692;53.314;-6.300;2022-11-11T14:29:18;101105.38;;;18.49;73.98
64368;BME280;50692;53.314;-6.300;2022-11-11T14:32:28;101082.25;;;18.48;74.01
64368;BME280;50692;53.314;-6.300;2022-11-11T14:35:35;101083.47;;;18.44;74.17
64368;BME280;50692;53.314;-6.300;2022-11-11T14:49:57;101118.63;;;18.06;76.74
64368;BME280;50692;53.314;-6.300;2022-11-11T14:52:45;101126.53;;;18.07;76.57
64368;BME280;50692;53.314;-6.300;2022-11-11T14:55:33;101125.06;;;18.03;77.10
64368;BME280;50692;53.314;-6.300;2022-11-11T14:58:22;101129.66;;;18.01;77.37
64368;BME280;50692;53.314;-6.300;2022-11-11T15:01:13;101171.13;;;17.95;77.79
64368;BME280;50692;53.314;-6.300;2022-11-11T15:04:03;101159.06;;;17.90;78.00
64368;BME280;50692;53.314;-6.300;2022-11-11T15:06:57;101156.78;;;17.96;77.79
64368;BME280;50692;53.314;-6.300;2022-11-11T15:10:01;101155.56;;;17.89;78.03
64368;BME280;50692;53.314;-6.300;2022-11-11T15:13:03;101161.28;;;17.96;77.69
64368;BME280;50692;53.314;-6.300;2022-11-11T15:16:24;101162.69;;;17.78;78.31
64368;BME280;50692;53.314;-6.300;2022-11-11T15:22:48;101169.50;;;17.58;79.75
64368;BME280;50692;53.314;-6.300;2022-11-11T15:25:49;101167.94;;;17.55;79.73
64368;BME280;50692;53.314;-6.300;2022-11-11T15:28:44;101161.34;;;17.48;80.09
64368;BME280;50692;53.314;-6.300;2022-11-11T15:31:49;101187.31;;;17.46;80.14
64368;BME280;50692;53.314;-6.300;2022-11-11T15:34:43;101202.38;;;17.47;80.25
64368;BME280;50692;53.314;-6.300;2022-11-11T15:37:32;101192.03;;;17.42;80.30
64368;BME280;50692;53.314;-6.300;2022-11-11T15:40:22;101204.56;;;17.42;80.40
64368;BME280;50692;53.314;-6.300;2022-11-11T15:43:30;101212.91;;;17.37;80.61
64368;BME280;50692;53.314;-6.300;2022-11-11T15:46:23;101220.06;;;17.37;80.63
64368;BME280;50692;53.314;-6.300;2022-11-11T15:49:14;101240.28;;;17.41;80.37
64368;BME280;50692;53.314;-6.300;2022-11-11T15:52:23;101227.13;;;17.38;80.55
64368;BME280;50692;53.314;-6.300;2022-11-11T15:55:25;101216.25;;;17.28;80.79
64368;BME280;50692;53.314;-6.300;2022-11-11T16:01:05;101249.50;;;17.24;81.01
64368;BME280;50692;53.314;-6.300;2022-11-11T16:03:52;101250.38;;;17.12;81.21
64368;BME280;50692;53.314;-6.300;2022-11-11T16:06:38;101248.88;;;17.20;81.23
64368;BME280;50692;53.314;-6.300;2022-11-11T16:09:26;101250.78;;;17.18;81.44
64368;BME280;50692;53.314;-6.300;2022-11-11T16:12:18;101271.09;;;17.21;81.38
64368;BME280;50692;53.314;-6.300;2022-11-11T16:15:07;101270.69;;;17.14;81.68
64368;BME280;50692;53.314;-6.300;2022-11-11T16:17:59;101271.94;;;17.21;81.28
64368;BME280;50692;53.314;-6.300;2022-11-11T16:20:58;101265.25;;;17.16;81.39
64368;BME280;50692;53.314;-6.300;2022-11-11T16:23:46;101262.03;;;17.11;81.69
64368;BME280;50692;53.314;-6.300;2022-11-11T16:26:33;101233.13;;;16.92;81.64
64368;BME280;50692;53.314;-6.300;2022-11-11T16:29:19;101284.03;;;17.14;81.84
64368;BME280;50692;53.314;-6.300;2022-11-11T16:35:31;101286.91;;;17.11;82.15